Time,TemperatureF,DewpointF,PressureIn,WindDirection,WindDirectionDegrees,WindSpeedMPH,WindSpeedGustMPH,Humidity,HourlyPrecipIn,Conditions,Clouds,dailyrainin,SolarRadiationWatts/m^2,SoftwareType,DateUTC
2013-05-06 00:01:00,49.4,46.0,29.85,NE,43,0.0,0.0,89,0.00,,,0.45,0,weatherlink.com 1.10,2013-05-06 04:01:00,
2013-05-06 00:16:00,49.5,46.0,29.85,NE,43,0.0,0.0,89,0.00,,,0.45,0,weatherlink.com 1.10,2013-05-06 04:16:00,
2013-05-06 00:31:00,49.5,46.0,29.85,NE,43,0.0,0.0,89,0.00,,,0.45,0,weatherlink.com 1.10,2013-05-06 04:31:00,
2013-05-06 00:46:00,49.4,46.0,29.86,ENE,60,0.0,0.0,89,0.00,,,0.45,0,weatherlink.com 1.10,2013-05-06 04:46:00,
2013-05-06 01:01:00,49.3,46.0,29.86,ENE,77,0.0,0.0,89,0.00,,,0.45,0,weatherlink.com 1.10,2013-05-06 05:01:00,
2013-05-06 01:16:00,49.0,46.0,29.86,ENE,77,0.0,0.0,89,0.00,,,0.45,0,weatherlink.com 1.10,2013-05-06 05:16:00,
2013-05-06 01:31:00,48.6,46.0,29.86,ENE,77,0.0,0.0,89,0.00,,,0.45,0,weatherlink.com 1.10,2013-05-06 05:31:00,
2013-05-06 01:46:00,48.2,45.0,29.86,East,98,0.0,1.0,89,0.00,,,0.45,0,weatherlink.com 1.10,2013-05-06 05:46:00,
2013-05-06 02:01:00,47.8,45.0,29.86,NE,44,0.0,2.0,89,0.00,,,0.45,0,weatherlink.com 1.10,2013-05-06 06:01:00,
2013-05-06 02:16:00,47.6,45.0,29.86,East,88,0.0,1.0,89,0.00,,,0.45,0,weatherlink.com 1.10,2013-05-06 06:16:00,
2013-05-06 02:31:00,47.5,45.0,29.85,ESE,114,0.0,0.0,89,0.00,,,0.45,0,weatherlink.com 1.10,2013-05-06 06:31:00,
2013-05-06 02:47:00,47.4,45.0,29.85,ESE,114,0.0,0.0,90,0.00,,,0.45,0,weatherlink.com 1.10,2013-05-06 06:47:00,
2013-05-06 03:02:00,47.4,45.0,29.85,ESE,114,0.0,0.0,90,0.00,,,0.45,0,weatherlink.com 1.10,2013-05-06 07:02:00,
2013-05-06 03:10:00,-999.0,-99.9,0.00,North,-999,-999.0,-999.0,-999,0.00,,,0.00,,weatherlink.com 1.10,2013-05-06 07:10:00,
2013-05-06 03:22:00,-999.0,-99.9,29.85,ESE,114,0.0,0.0,-999,0.00,,,0.00,,weatherlink.com 1.10,2013-05-06 07:22:00,
2013-05-06 03:37:00,47.3,44.0,29.84,ESE,114,0.0,0.0,89,0.00,,,0.00,0,weatherlink.com 1.10,2013-05-06 07:37:00,
2013-05-06 03:52:00,47.1,44.0,29.84,ESE,114,0.0,0.0,89,0.00,,,0.00,0,weatherlink.com 1.10,2013-05-06 07:52:00,
2013-05-06 04:07:00,46.9,44.0,29.85,ESE,114,0.0,0.0,89,0.00,,,0.00,0,weatherlink.com 1.10,2013-05-06 08:07:00,
2013-05-06 04:22:00,46.8,44.0,29.85,ESE,114,0.0,0.0,90,0.00,,,0.00,0,weatherlink.com 1.10,2013-05-06 08:22:00,
2013-05-06 04:37:00,46.7,44.0,29.85,ESE,114,0.0,0.0,90,0.00,,,0.00,0,weatherlink.com 1.10,2013-05-06 08:37:00,
2013-05-06 04:52:00,46.6,44.0,29.86,ESE,114,0.0,0.0,89,0.00,,,0.00,0,weatherlink.com 1.10,2013-05-06 08:52:00,
2013-05-06 05:07:00,46.5,44.0,29.86,ESE,114,0.0,0.0,90,0.00,,,0.00,0,weatherlink.com 1.10,2013-05-06 09:07:00,
2013-05-06 05:23:00,46.5,44.0,29.86,ESE,114,0.0,0.0,90,0.00,,,0.00,0,weatherlink.com 1.10,2013-05-06 09:23:00,
2013-05-06 05:38:00,46.5,44.0,29.86,ESE,114,0.0,0.0,90,0.00,,,0.00,0,weatherlink.com 1.10,2013-05-06 09:38:00,
2013-05-06 05:53:00,46.4,44.0,29.86,ESE,114,0.0,0.0,90,0.00,,,0.00,0,weatherlink.com 1.10,2013-05-06 09:53:00,
2013-05-06 06:08:00,46.3,44.0,29.86,ESE,114,0.0,0.0,90,0.00,,,0.00,0,weatherlink.com 1.10,2013-05-06 10:08:00,
2013-05-06 06:23:00,46.3,44.0,29.86,ESE,114,0.0,0.0,90,0.00,,,0.00,0,weatherlink.com 1.10,2013-05-06 10:23:00,
2013-05-06 06:38:00,46.3,44.0,29.86,ESE,114,0.0,0.0,90,0.00,,,0.00,0,weatherlink.com 1.10,2013-05-06 10:38:00,
2013-05-06 06:53:00,46.3,44.0,29.87,ESE,114,0.0,0.0,90,0.00,,,0.00,0,weatherlink.com 1.10,2013-05-06 10:53:00,
2013-05-06 07:08:00,46.4,44.0,29.88,ESE,115,0.0,0.0,90,0.00,,,0.00,0,weatherlink.com 1.10,2013-05-06 11:08:00,
2013-05-06 07:23:00,46.5,44.0,29.89,SE,144,0.0,1.0,90,0.00,,,0.00,0,weatherlink.com 1.10,2013-05-06 11:23:00,
2013-05-06 07:38:00,46.7,44.0,29.89,SE,144,0.0,0.0,90,0.00,,,0.00,11,weatherlink.com 1.10,2013-05-06 11:38:00,
2013-05-06 07:53:00,46.8,44.0,29.89,SE,144,0.0,0.0,90,0.01,,,0.01,25,weatherlink.com 1.10,2013-05-06 11:53:00,
2013-05-06 08:08:00,47.0,44.0,29.90,SE,144,0.0,0.0,90,0.01,,,0.01,26,weatherlink.com 1.10,2013-05-06 12:08:00,
2013-05-06 08:23:00,47.2,45.0,29.90,SSE,148,0.0,1.0,91,0.01,,,0.01,14,weatherlink.com 1.10,2013-05-06 12:23:00,
2013-05-06 08:38:00,47.4,45.0,29.91,SSE,159,0.0,1.0,91,0.00,,,0.01,32,weatherlink.com 1.10,2013-05-06 12:38:00,
2013-05-06 08:53:00,47.7,45.0,29.91,SSE,159,0.0,0.0,91,0.00,,,0.01,40,weatherlink.com 1.10,2013-05-06 12:53:00,
2013-05-06 09:08:00,48.1,46.0,29.92,SSE,159,0.0,0.0,91,0.00,,,0.01,40,weatherlink.com 1.10,2013-05-06 13:08:00,
2013-05-06 09:23:00,48.7,46.0,29.92,SSE,159,0.0,0.0,91,0.00,,,0.01,60,weatherlink.com 1.10,2013-05-06 13:23:00,
2013-05-06 09:38:00,49.2,47.0,29.92,SSE,159,0.0,0.0,91,0.00,,,0.01,46,weatherlink.com 1.10,2013-05-06 13:38:00,
2013-05-06 09:53:00,49.3,47.0,29.91,SSE,159,0.0,0.0,91,0.00,,,0.01,53,weatherlink.com 1.10,2013-05-06 13:53:00,
2013-05-06 10:08:00,49.3,47.0,29.92,SSE,159,0.0,0.0,90,0.00,,,0.01,84,weatherlink.com 1.10,2013-05-06 14:08:00,
2013-05-06 10:23:00,49.4,47.0,29.93,SSE,159,0.0,1.0,90,0.00,,,0.01,46,weatherlink.com 1.10,2013-05-06 14:23:00,
2013-05-06 10:38:00,49.4,47.0,29.92,SSE,159,0.0,0.0,90,0.00,,,0.01,56,weatherlink.com 1.10,2013-05-06 14:38:00,
2013-05-06 10:53:00,50.0,47.0,29.93,SSE,159,0.0,1.0,90,0.00,,,0.01,141,weatherlink.com 1.10,2013-05-06 14:53:00,
2013-05-06 11:08:00,50.1,47.0,29.93,SSE,159,0.0,0.0,89,0.00,,,0.01,200,weatherlink.com 1.10,2013-05-06 15:08:00,
2013-05-06 11:23:00,50.7,48.0,29.94,SSE,159,0.0,0.0,89,0.00,,,0.01,118,weatherlink.com 1.10,2013-05-06 15:23:00,
2013-05-06 11:38:00,50.3,47.0,29.94,SSE,159,0.0,0.0,88,0.00,,,0.01,23,weatherlink.com 1.10,2013-05-06 15:38:00,
2013-05-06 11:53:00,50.5,47.0,29.94,SSE,159,0.0,1.0,88,0.00,,,0.01,67,weatherlink.com 1.10,2013-05-06 15:53:00,
2013-05-06 12:08:00,50.6,47.0,29.95,SSE,159,0.0,0.0,88,0.00,,,0.01,67,weatherlink.com 1.10,2013-05-06 16:08:00,
2013-05-06 12:23:00,51.1,48.0,29.94,SSE,159,0.0,0.0,88,0.00,,,0.01,167,weatherlink.com 1.10,2013-05-06 16:23:00,
2013-05-06 12:38:00,51.4,47.0,29.94,SSE,159,0.0,0.0,86,0.00,,,0.01,77,weatherlink.com 1.10,2013-05-06 16:38:00,
2013-05-06 12:53:00,51.5,48.0,29.95,SSE,165,0.0,2.0,86,0.00,,,0.01,151,weatherlink.com 1.10,2013-05-06 16:53:00,
2013-05-06 13:08:00,52.4,48.0,29.94,SSE,166,0.0,0.0,84,0.00,,,0.01,134,weatherlink.com 1.10,2013-05-06 17:08:00,
2013-05-06 13:23:00,53.1,48.0,29.94,SSE,167,0.0,0.0,83,0.00,,,0.01,250,weatherlink.com 1.10,2013-05-06 17:23:00,
2013-05-06 13:38:00,53.9,49.0,29.94,South,175,0.0,1.0,84,0.00,,,0.01,250,weatherlink.com 1.10,2013-05-06 17:38:00,
2013-05-06 13:54:00,54.4,49.0,29.94,SW,216,0.0,1.0,81,0.00,,,0.01,128,weatherlink.com 1.10,2013-05-06 17:54:00,
2013-05-06 14:09:00,53.8,49.0,29.94,South,188,0.0,1.0,83,0.00,,,0.01,193,weatherlink.com 1.10,2013-05-06 18:09:00,
2013-05-06 14:24:00,54.6,49.0,29.94,South,188,0.0,1.0,81,0.00,,,0.01,207,weatherlink.com 1.10,2013-05-06 18:24:00,
2013-05-06 14:39:00,55.4,50.0,29.93,South,178,0.0,0.0,81,0.00,,,0.01,325,weatherlink.com 1.10,2013-05-06 18:39:00,
2013-05-06 14:54:00,56.6,49.0,29.93,SSE,168,0.0,2.0,75,0.00,,,0.01,332,weatherlink.com 1.10,2013-05-06 18:54:00,
2013-05-06 15:09:00,57.2,50.0,29.92,South,169,0.0,1.0,78,0.00,,,0.01,292,weatherlink.com 1.10,2013-05-06 19:09:00,
2013-05-06 15:39:00,55.8,49.0,29.92,South,170,0.0,1.0,78,0.00,,,0.01,127,weatherlink.com 1.10,2013-05-06 19:39:00,
2013-05-06 15:54:00,55.9,48.0,29.92,South,172,0.0,1.0,75,0.00,,,0.01,81,weatherlink.com 1.10,2013-05-06 19:54:00,
2013-05-06 16:09:00,55.6,49.0,29.91,South,172,0.0,0.0,78,0.00,,,0.00,65,weatherlink.com 1.10,2013-05-06 20:09:00,
2013-05-06 16:24:00,55.6,49.0,29.91,South,172,0.0,0.0,78,0.00,,,0.00,54,weatherlink.com 1.10,2013-05-06 20:24:00,
2013-05-06 16:39:00,55.5,49.0,29.91,South,172,0.0,1.0,80,0.00,,,0.00,58,weatherlink.com 1.10,2013-05-06 20:39:00,
2013-05-06 16:54:00,54.8,50.0,29.91,South,172,0.0,0.0,83,0.00,,,0.00,62,weatherlink.com 1.10,2013-05-06 20:54:00,
2013-05-06 17:09:00,54.4,50.0,29.91,South,172,0.0,0.0,84,0.00,,,0.00,104,weatherlink.com 1.10,2013-05-06 21:09:00,
2013-05-06 17:24:00,54.8,49.0,29.91,South,172,0.0,0.0,82,0.00,,,0.00,70,weatherlink.com 1.10,2013-05-06 21:24:00,
2013-05-06 17:39:00,54.9,50.0,29.91,South,172,0.0,0.0,83,0.00,,,0.00,25,weatherlink.com 1.10,2013-05-06 21:39:00,
2013-05-06 17:54:00,55.1,50.0,29.91,South,172,0.0,0.0,83,0.00,,,0.00,14,weatherlink.com 1.10,2013-05-06 21:54:00,
2013-05-06 18:09:00,55.0,50.0,29.91,South,172,0.0,0.0,84,0.00,,,0.00,28,weatherlink.com 1.10,2013-05-06 22:09:00,
2013-05-06 18:24:00,54.8,50.0,29.91,South,172,0.0,0.0,85,0.01,,,0.01,19,weatherlink.com 1.10,2013-05-06 22:24:00,
2013-05-06 18:39:00,54.6,50.0,29.91,South,172,0.0,0.0,85,0.02,,,0.02,7,weatherlink.com 1.10,2013-05-06 22:39:00,
2013-05-06 18:54:00,54.3,50.0,29.91,South,172,0.0,0.0,85,0.02,,,0.02,19,weatherlink.com 1.10,2013-05-06 22:54:00,
2013-05-06 19:09:00,54.1,50.0,29.91,South,172,0.0,0.0,86,0.02,,,0.03,25,weatherlink.com 1.10,2013-05-06 23:09:00,
2013-05-06 19:24:00,53.9,50.0,29.91,South,172,0.0,0.0,86,0.02,,,0.03,51,weatherlink.com 1.10,2013-05-06 23:24:00,
2013-05-06 19:39:00,53.8,50.0,29.90,South,172,0.0,0.0,86,0.01,,,0.03,18,weatherlink.com 1.10,2013-05-06 23:39:00,
2013-05-06 19:54:00,53.6,50.0,29.90,South,172,0.0,0.0,87,0.01,,,0.03,9,weatherlink.com 1.10,2013-05-06 23:54:00,
2013-05-06 20:09:00,53.5,50.0,29.90,South,172,0.0,0.0,87,0.00,,,0.03,0,weatherlink.com 1.10,2013-05-07 00:09:00,
2013-05-06 20:24:00,53.3,50.0,29.90,South,172,0.0,0.0,87,0.00,,,0.03,0,weatherlink.com 1.10,2013-05-07 00:24:00,
2013-05-06 20:39:00,53.2,50.0,29.91,South,172,0.0,0.0,88,0.00,,,0.03,0,weatherlink.com 1.10,2013-05-07 00:39:00,
2013-05-06 20:54:00,53.1,50.0,29.91,South,172,0.0,0.0,88,0.00,,,0.03,0,weatherlink.com 1.10,2013-05-07 00:54:00,
2013-05-06 21:09:00,53.0,50.0,29.92,South,172,0.0,0.0,88,0.00,,,0.03,0,weatherlink.com 1.10,2013-05-07 01:09:00,
2013-05-06 21:24:00,52.9,50.0,29.92,South,172,0.0,0.0,88,0.00,,,0.03,0,weatherlink.com 1.10,2013-05-07 01:24:00,
2013-05-06 21:39:00,52.8,49.0,29.93,South,172,0.0,0.0,88,0.01,,,0.04,0,weatherlink.com 1.10,2013-05-07 01:39:00,
2013-05-06 21:54:00,52.8,49.0,29.93,South,175,0.0,0.0,88,0.02,,,0.05,0,weatherlink.com 1.10,2013-05-07 01:54:00,
2013-05-06 22:09:00,52.8,50.0,29.94,South,175,0.0,0.0,89,0.03,,,0.06,0,weatherlink.com 1.10,2013-05-07 02:09:00,
2013-05-06 22:24:00,52.7,50.0,29.94,South,175,0.0,0.0,89,0.08,,,0.11,0,weatherlink.com 1.10,2013-05-07 02:24:00,
2013-05-06 22:39:00,52.6,50.0,29.94,ENE,69,0.0,0.0,89,0.13,,,0.17,0,weatherlink.com 1.10,2013-05-07 02:39:00,
2013-05-06 22:54:00,52.6,50.0,29.92,ENE,69,0.0,0.0,89,0.14,,,0.19,0,weatherlink.com 1.10,2013-05-07 02:54:00,
2013-05-06 23:09:00,52.6,50.0,29.93,ENE,69,0.0,0.0,90,0.15,,,0.21,0,weatherlink.com 1.10,2013-05-07 03:09:00,
2013-05-06 23:24:00,52.5,50.0,29.93,ENE,69,0.0,0.0,90,0.11,,,0.22,0,weatherlink.com 1.10,2013-05-07 03:24:00,
2013-05-06 23:39:00,52.4,50.0,29.92,ENE,69,0.0,0.0,90,0.06,,,0.23,0,weatherlink.com 1.10,2013-05-07 03:39:00,
2013-05-06 23:54:00,52.3,50.0,29.92,ENE,69,0.0,0.0,90,0.04,,,0.23,0,weatherlink.com 1.10,2013-05-07 03:54:00,